Weather at Long Sukang Airport

Public forecast

Using degrees Celsius for public forecast. Weather courtesy of forecast.io.

Closest aviation weather report (METAR) to Long Sukang Airport

Closest report is Brunei International Airport, 41.2 nm (76.4 km) NW.

2023/02/09 06:00 (retrieved 24 minutes ago)

WBSB 090600Z 32006KT 9999 SCT015 FEW016CB SCT300 32/27 Q1008 NOSIG

Closest aviation forecast (TAF) to Long Sukang Airport

Closest forecast is Brunei International Airport, 41.2 nm (76.4 km) NW.

2023/02/09 06:12 (retrieved 12 minutes ago)

TAF WBSB 090500Z 0906/1012 35010KT 9999 SCT015 FEW016CB TEMPO 0909/0913 7000 SHRA TSRA BECMG 0912/0914 20003KT FEW004 SCT014 FEW015CB